createdAt,value
2022-10-20T00:02:21.234Z,36.67
2022-10-20T00:07:24.343Z,36.90
2022-10-20T00:12:27.239Z,36.60
2022-10-20T00:17:31.480Z,36.70
2022-10-20T00:22:34.577Z,36.13
2022-10-20T00:27:37.584Z,36.17
2022-10-20T00:32:41.808Z,36.50
2022-10-20T00:37:44.710Z,36.78
2022-10-20T00:42:48.595Z,39.17
2022-10-20T00:47:54.936Z,39.10
2022-10-20T00:52:58.426Z,37.60
2022-10-20T00:58:02.903Z,38.53
2022-10-20T01:03:09.137Z,38.22
2022-10-20T01:08:12.006Z,37.15
2022-10-20T01:13:20.745Z,37.58
2022-10-20T01:18:30.650Z,38.42
2022-10-20T01:24:01.358Z,37.88
2022-10-20T01:29:13.126Z,37.97
2022-10-20T01:34:21.967Z,37.05
2022-10-20T01:39:30.903Z,37.38
2022-10-20T01:44:37.291Z,37.47
2022-10-20T01:49:43.808Z,36.40
2022-10-20T01:54:46.686Z,37.63
2022-10-20T02:00:02.320Z,36.70
2022-10-20T02:05:22.470Z,37.17
2022-10-20T02:10:31.574Z,42.67
2022-10-20T02:15:39.345Z,42.33
2022-10-20T02:20:45.247Z,37.40
2022-10-20T02:25:50.681Z,37.50
2022-10-20T02:30:56.239Z,37.33
2022-10-20T02:36:01.135Z,36.40
2022-10-20T02:41:04.106Z,37.67
2022-10-20T02:46:08.723Z,37.13
2022-10-20T02:51:11.801Z,36.83
2022-10-20T02:56:14.696Z,37.53
2022-10-20T03:01:19.107Z,36.97
2022-10-20T03:06:22.049Z,37.08
2022-10-20T03:11:25.222Z,37.08
2022-10-20T03:16:29.586Z,36.92
2022-10-20T03:21:32.479Z,37.25
2022-10-20T03:26:35.409Z,37.30
2022-10-20T03:31:39.726Z,37.67
2022-10-20T03:36:44.772Z,37.15
2022-10-20T03:41:47.679Z,37.85
2022-10-20T03:46:51.939Z,36.88
2022-10-20T03:51:54.893Z,37.30
2022-10-20T03:56:57.828Z,37.10
2022-10-20T04:02:02.160Z,36.53
2022-10-20T04:07:05.126Z,37.40
2022-10-20T04:12:08.046Z,38.25
2022-10-20T04:17:12.294Z,37.45
2022-10-20T04:22:15.368Z,37.20
2022-10-20T04:27:18.271Z,37.13
2022-10-20T04:32:22.563Z,37.85
2022-10-20T04:37:25.681Z,37.60
2022-10-20T04:42:28.569Z,36.65
2022-10-20T04:47:35.323Z,36.90
2022-10-20T04:52:38.379Z,37.40
2022-10-20T04:57:41.284Z,37.08
2022-10-20T05:02:45.601Z,37.35
2022-10-20T05:07:48.493Z,38.15
2022-10-20T05:12:51.480Z,37.38
2022-10-20T05:17:55.739Z,37.28
2022-10-20T05:22:58.635Z,40.50
2022-10-20T05:28:01.537Z,37.63
2022-10-20T05:33:05.952Z,36.53
2022-10-20T05:38:08.833Z,37.55
2022-10-20T05:43:11.736Z,37.63
2022-10-20T05:48:15.994Z,37.47
2022-10-20T05:53:18.898Z,36.35
2022-10-20T05:58:23.084Z,37.45
2022-10-20T06:03:28.331Z,36.45
2022-10-20T06:08:32.418Z,37.55
2022-10-20T06:13:36.231Z,36.35
2022-10-20T06:18:40.739Z,37.65
2022-10-20T06:23:43.894Z,36.83
2022-10-20T06:28:48.904Z,36.85
2022-10-20T06:33:53.721Z,35.78
2022-10-20T06:38:57.593Z,37.15
2022-10-20T06:44:00.577Z,35.40
2022-10-20T06:49:06.867Z,36.60
2022-10-20T06:54:10.320Z,36.30
2022-10-20T06:59:13.271Z,36.78
2022-10-20T07:04:17.794Z,35.83
2022-10-20T07:09:21.176Z,36.05
2022-10-20T07:14:24.158Z,35.90
2022-10-20T07:19:28.492Z,36.05
2022-10-20T07:24:31.428Z,36.35
2022-10-20T07:29:34.836Z,36.30
2022-10-20T07:34:39.340Z,36.88
2022-10-20T07:39:42.476Z,37.13
2022-10-20T07:44:45.362Z,37.97
2022-10-20T07:49:49.585Z,37.08
2022-10-20T07:55:01.581Z,36.90
2022-10-20T08:00:15.769Z,36.80
2022-10-20T08:05:20.104Z,36.70
2022-10-20T08:10:23.094Z,37.55
2022-10-20T08:15:40.004Z,37.35
2022-10-20T08:20:45.200Z,36.55
2022-10-20T08:25:48.134Z,36.60
2022-10-20T08:30:51.111Z,37.40
2022-10-20T08:35:55.351Z,37.13
2022-10-20T08:40:59.414Z,37.28
2022-10-20T08:46:02.354Z,37.75
2022-10-20T08:51:06.917Z,37.35
2022-10-20T08:56:13.046Z,38.13
2022-10-20T09:01:21.089Z,37.40
2022-10-20T09:06:25.814Z,38.67
2022-10-20T09:11:36.670Z,39.72
2022-10-20T09:16:58.550Z,39.47
2022-10-20T09:22:07.960Z,39.60
2022-10-20T09:27:24.732Z,41.08
2022-10-20T09:32:50.920Z,40.50
2022-10-20T09:38:00.052Z,40.70
2022-10-20T09:43:15.913Z,40.15
2022-10-20T09:48:23.452Z,40.40
2022-10-20T09:53:30.452Z,41.05
2022-10-20T09:58:37.796Z,41.03
2022-10-20T10:03:43.285Z,41.70
2022-10-20T10:08:48.102Z,41.25
2022-10-20T10:13:52.991Z,41.22
2022-10-20T10:18:59.790Z,44.25
2022-10-20T10:24:05.776Z,40.92
2022-10-20T10:29:18.758Z,40.88
2022-10-20T10:34:33.572Z,42.53
2022-10-20T10:39:37.917Z,41.60
2022-10-20T10:44:51.977Z,41.30
2022-10-20T10:50:00.580Z,42.15
2022-10-20T10:55:30.603Z,41.70
2022-10-20T11:00:45.994Z,41.65
2022-10-20T11:06:01.336Z,41.10
2022-10-20T11:11:18.482Z,42.25
2022-10-20T11:16:33.064Z,41.10
2022-10-20T11:21:47.869Z,40.80
2022-10-20T11:26:57.818Z,40.83
2022-10-20T11:32:09.889Z,40.20
2022-10-20T11:37:19.010Z,41.47
2022-10-20T11:42:30.922Z,41.22
2022-10-20T11:47:38.410Z,40.90
2022-10-20T11:53:18.221Z,42.33
2022-10-20T11:58:37.752Z,41.22
2022-10-20T12:03:58.021Z,41.72
2022-10-20T12:09:38.819Z,41.30
2022-10-20T12:14:46.463Z,40.90
2022-10-20T12:19:51.754Z,41.60
2022-10-20T12:25:18.329Z,42.90
2022-10-20T12:30:45.701Z,42.35
2022-10-20T12:36:00.862Z,43.70
2022-10-20T12:41:04.831Z,42.95
2022-10-20T12:46:17.709Z,41.80
2022-10-20T12:51:33.656Z,43.45
2022-10-20T12:56:40.628Z,43.30
2022-10-20T13:02:35.402Z,42.75
2022-10-20T13:08:04.486Z,43.38
2022-10-20T13:13:45.102Z,42.90
2022-10-20T13:18:50.675Z,43.00
2022-10-20T13:24:04.012Z,42.47
2022-10-20T13:29:14.296Z,42.60
2022-10-20T13:34:23.426Z,42.92
2022-10-20T13:39:36.046Z,44.17
2022-10-20T13:44:49.779Z,42.85
2022-10-20T13:50:02.839Z,42.90
2022-10-20T13:55:12.697Z,44.50
2022-10-20T14:00:20.275Z,42.65
2022-10-20T14:05:24.854Z,42.08
2022-10-20T14:10:33.486Z,41.97
2022-10-20T14:15:38.151Z,41.75
2022-10-20T14:20:41.899Z,42.45
2022-10-20T14:25:46.800Z,42.85
2022-10-20T14:30:51.853Z,42.05
2022-10-20T14:36:01.635Z,43.75
2022-10-20T14:41:09.398Z,41.97
2022-10-20T14:46:14.630Z,42.65
2022-10-20T14:51:34.503Z,42.25
2022-10-20T14:56:44.932Z,43.22
2022-10-20T15:02:01.377Z,42.72
2022-10-20T15:07:13.144Z,42.03
2022-10-20T15:12:20.960Z,42.03
2022-10-20T15:17:39.313Z,42.20
2022-10-20T15:22:43.598Z,44.10
2022-10-20T15:27:48.318Z,42.95
2022-10-20T15:32:51.649Z,42.80
2022-10-20T15:37:56.332Z,43.58
2022-10-20T15:43:00.756Z,44.03
2022-10-20T15:48:03.730Z,44.33
2022-10-20T15:53:12.975Z,40.45
2022-10-20T15:58:21.752Z,44.28
2022-10-20T16:03:30.985Z,41.33
2022-10-20T16:08:35.466Z,42.38
2022-10-20T16:13:40.346Z,41.28
2022-10-20T16:18:43.351Z,45.60
2022-10-20T16:23:46.892Z,43.35
2022-10-20T16:28:51.280Z,41.35
2022-10-20T16:33:54.242Z,42.55
2022-10-20T16:38:58.492Z,43.10
2022-10-20T16:44:03.108Z,44.55
2022-10-20T16:49:25.816Z,43.53
2022-10-20T16:54:33.290Z,44.13
2022-10-20T17:00:05.209Z,43.22
2022-10-20T17:05:13.008Z,46.63
2022-10-20T17:10:16.158Z,40.35
2022-10-20T17:15:20.807Z,43.55
2022-10-20T17:20:23.762Z,42.80
2022-10-20T17:25:26.834Z,42.28
2022-10-20T17:30:31.135Z,42.90
2022-10-20T17:35:34.134Z,42.08
2022-10-20T17:40:37.950Z,40.92
2022-10-20T17:45:44.443Z,39.33
2022-10-20T17:50:47.424Z,42.88
2022-10-20T17:55:50.392Z,40.60
2022-10-20T18:01:06.686Z,43.05
2022-10-20T18:06:12.897Z,43.83
2022-10-20T18:11:18.090Z,41.72
2022-10-20T18:16:22.644Z,44.22
2022-10-20T18:21:26.961Z,44.55
2022-10-20T18:26:32.110Z,43.72
2022-10-20T18:31:37.778Z,42.97
2022-10-20T18:36:44.970Z,44.90
2022-10-20T18:41:54.516Z,43.08
2022-10-20T18:46:59.510Z,44.47
2022-10-20T18:52:02.917Z,43.08
2022-10-20T18:57:05.941Z,44.65
2022-10-20T19:02:21.776Z,44.08
2022-10-20T19:07:24.963Z,43.67
2022-10-20T19:12:27.950Z,43.22
2022-10-20T19:17:34.053Z,41.58
2022-10-20T19:22:39.439Z,42.95
2022-10-20T19:27:42.587Z,42.72
2022-10-20T19:32:51.292Z,44.15
2022-10-20T19:37:54.301Z,41.63
2022-10-20T19:42:57.227Z,38.72
2022-10-20T19:48:01.487Z,40.08
2022-10-20T19:53:04.707Z,40.08
2022-10-20T20:03:14.807Z,41.92
2022-10-20T20:08:23.878Z,41.75
2022-10-20T20:13:27.127Z,42.50
2022-10-20T20:18:31.432Z,39.75
2022-10-20T20:23:47.587Z,46.33
2022-10-20T20:28:59.059Z,42.83
2022-10-20T20:34:03.331Z,44.83
2022-10-20T20:39:07.134Z,43.92
2022-10-20T20:44:10.136Z,43.20
2022-10-20T20:49:14.441Z,43.42
2022-10-20T20:54:17.393Z,43.38
2022-10-20T20:59:20.381Z,42.67
2022-10-20T21:04:27.068Z,44.10
2022-10-20T21:09:33.091Z,45.38
2022-10-20T21:14:36.004Z,45.55
2022-10-20T21:19:40.268Z,42.60
2022-10-20T21:24:43.187Z,45.92
2022-10-20T21:29:46.441Z,43.63
2022-10-20T21:34:50.844Z,43.78
2022-10-20T21:39:53.735Z,40.90
2022-10-20T21:44:56.665Z,42.17
2022-10-20T21:50:01.066Z,42.47
2022-10-20T21:55:04.019Z,41.22
2022-10-20T22:00:09.102Z,40.20
2022-10-20T22:05:13.405Z,39.08
2022-10-20T22:10:16.375Z,38.03
2022-10-20T22:15:19.262Z,39.50
2022-10-20T22:20:23.893Z,39.72
2022-10-20T22:25:26.811Z,38.58
2022-10-20T22:30:29.755Z,38.40
2022-10-20T22:35:34.047Z,38.28
2022-10-20T22:40:37.051Z,38.33
2022-10-20T22:45:40.024Z,40.35
2022-10-20T22:50:44.297Z,40.38
2022-10-20T22:55:47.214Z,41.40
2022-10-20T23:00:50.432Z,39.42
2022-10-20T23:05:54.796Z,40.70
2022-10-20T23:10:58.544Z,40.35
2022-10-20T23:16:01.538Z,41.25
2022-10-20T23:21:06.702Z,39.92
2022-10-20T23:26:10.405Z,40.08
2022-10-20T23:31:15.581Z,41.25
2022-10-20T23:36:20.057Z,40.50
2022-10-20T23:41:23.082Z,38.40
2022-10-20T23:46:27.698Z,38.50
2022-10-20T23:51:32.316Z,38.10
2022-10-20T23:56:35.217Z,37.50
